Time;durP1;ratioP1;P1;durP2;ratioP2;P2;SDS_P1;SDS_P2;PMS_P1;PMS_P2;Temp;Humidity;BMP_temperature;BMP_pressure;BME280_temperature;BME280_humidity;BME280_pressure;Samples;Min_cycle;Max_cycle;Signal;HPM_P1;HPM_P2
2022/04/23 00:00:40;;;;;;;14.95;12.98;;;15.30;50.80;;;;;;5045267;28;20094;-47
2022/04/23 00:03:08;;;;;;;16.83;13.07;;;15.30;50.90;;;;;;5047356;28;20041;-48
2022/04/23 00:05:44;;;;;;;14.38;12.38;;;15.30;51.10;;;;;;5041694;28;20120;-47
2022/04/23 00:08:16;;;;;;;13.60;12.25;;;15.30;51.90;;;;;;5048988;28;20053;-48
2022/04/23 00:10:47;;;;;;;15.00;12.82;;;15.20;51.10;;;;;;5049330;28;20513;-49
2022/04/23 00:13:20;;;;;;;14.07;12.38;;;15.20;51.30;;;;;;5042814;28;20124;-49
2022/04/23 00:15:52;;;;;;;14.32;12.50;;;15.20;51.30;;;;;;5042968;28;20029;-46
2022/04/23 00:18:21;;;;;;;15.68;13.93;;;15.20;51.30;;;;;;5021937;28;20069;-50
2022/04/23 00:20:50;;;;;;;15.43;12.43;;;15.10;51.50;;;;;;5040238;28;20096;-47
2022/04/23 00:23:20;;;;;;;14.38;12.95;;;15.10;51.60;;;;;;5033784;28;20078;-49
2022/04/23 00:25:52;;;;;;;15.90;13.65;;;15.10;51.80;;;;;;5049677;28;20056;-47
2022/04/23 00:28:23;;;;;;;16.52;13.38;;;15.00;51.90;;;;;;5048018;28;20098;-47
2022/04/23 00:30:52;;;;;;;14.63;12.73;;;15.00;52.00;;;;;;5049370;28;20049;-47
2022/04/23 00:33:21;;;;;;;15.85;13.43;;;14.90;52.00;;;;;;5041482;28;20067;-47
2022/04/23 00:35:49;;;;;;;15.95;13.27;;;14.90;52.10;;;;;;5046242;28;20107;-46
2022/04/23 00:38:16;;;;;;;15.50;13.90;;;14.90;52.30;;;;;;5036970;28;20045;-49
2022/04/23 00:40:46;;;;;;;15.80;13.60;;;14.90;52.40;;;;;;5044270;28;20033;-48
2022/04/23 00:43:30;;;;;;;14.90;13.15;;;14.80;52.40;;;;;;5042012;28;20033;-49
2022/04/23 00:46:01;;;;;;;16.98;14.23;;;14.80;53.30;;;;;;5049189;28;20073;-46
2022/04/23 00:48:28;;;;;;;17.08;13.77;;;14.80;52.50;;;;;;5044233;28;20045;-50
2022/04/23 00:50:59;;;;;;;16.08;13.68;;;14.80;52.60;;;;;;5041455;28;20068;-48
2022/04/23 00:53:29;;;;;;;15.45;13.60;;;14.80;53.10;;;;;;5049777;28;20049;-48
2022/04/23 00:56:01;;;;;;;16.08;14.25;;;14.70;52.80;;;;;;5044834;28;20044;-47
2022/04/23 00:58:30;;;;;;;16.58;13.88;;;14.70;52.80;;;;;;5045263;28;20036;-49
2022/04/23 01:00:56;;;;;;;15.15;13.55;;;14.70;53.00;;;;;;5040426;28;20096;-48
2022/04/23 01:03:23;;;;;;;16.98;14.25;;;14.60;53.00;;;;;;5049955;28;20040;-49
2022/04/23 01:05:51;;;;;;;16.15;14.50;;;14.60;53.20;;;;;;5047327;28;20096;-48
2022/04/23 01:08:19;;;;;;;16.30;13.30;;;14.60;53.20;;;;;;5046093;28;20071;-51
2022/04/23 01:10:48;;;;;;;15.88;14.20;;;14.60;53.40;;;;;;5030196;28;20041;-47
2022/04/23 01:13:18;;;;;;;19.95;14.75;;;14.60;53.40;;;;;;5030035;28;20128;-50
2022/04/23 01:16:19;;;;;;;15.50;13.90;;;14.50;53.70;;;;;;5040268;28;20060;-49
2022/04/23 01:18:48;;;;;;;16.50;14.77;;;14.50;54.40;;;;;;5003586;28;20067;-47
2022/04/23 01:21:16;;;;;;;17.17;14.18;;;14.50;53.70;;;;;;5016296;28;20099;-47
2022/04/23 01:23:46;;;;;;;15.75;14.07;;;14.50;53.50;;;;;;5044823;28;20397;-48
2022/04/23 01:26:27;;;;;;;16.27;13.93;;;14.40;54.10;;;;;;5047039;28;20064;-47
2022/04/23 01:29:01;;;;;;;15.40;13.80;;;14.40;54.40;;;;;;5045672;28;20523;-46
2022/04/23 01:31:30;;;;;;;17.15;15.00;;;14.40;53.80;;;;;;5048366;28;20083;-49
2022/04/23 01:33:57;;;;;;;16.42;13.93;;;14.40;53.90;;;;;;5021455;28;20057;-49
2022/04/23 01:36:24;;;;;;;17.27;14.65;;;14.40;53.90;;;;;;5044756;28;20041;-46
2022/04/23 01:38:56;;;;;;;19.88;14.77;;;14.30;54.00;;;;;;5037954;28;20046;-46
2022/04/23 01:41:23;;;;;;;16.50;14.80;;;14.30;54.20;;;;;;5028800;28;20107;-47
2022/04/23 01:43:49;;;;;;;17.33;14.15;;;14.30;54.10;;;;;;5037698;28;20496;-47
2022/04/23 01:46:16;;;;;;;16.98;15.13;;;14.30;54.30;;;;;;5045780;28;20409;-47
2022/04/23 01:48:43;;;;;;;18.25;15.30;;;14.20;54.40;;;;;;5043055;28;20041;-50
2022/04/23 01:51:12;;;;;;;17.77;15.10;;;14.20;54.50;;;;;;5049047;28;20063;-48
2022/04/23 01:53:39;;;;;;;16.52;13.68;;;14.20;54.50;;;;;;5041887;28;20045;-48
2022/04/23 01:56:06;;;;;;;16.55;14.82;;;14.20;54.90;;;;;;5047925;28;20512;-46
2022/04/23 01:58:38;;;;;;;17.63;14.57;;;14.20;54.60;;;;;;5041254;28;20069;-48
2022/04/23 02:01:12;;;;;;;16.05;14.35;;;14.10;54.90;;;;;;5047236;28;20077;-48
2022/04/23 02:03:41;;;;;;;16.85;14.13;;;14.10;55.40;;;;;;5042813;28;20041;-50
2022/04/23 02:06:12;;;;;;;16.25;14.48;;;14.10;54.80;;;;;;5048469;28;20087;-46
2022/04/23 02:08:39;;;;;;;15.93;14.23;;;14.10;54.90;;;;;;5047158;28;20073;-48
2022/04/23 02:11:09;;;;;;;18.48;14.70;;;14.10;55.00;;;;;;5035807;28;20041;-46
2022/04/23 02:13:38;;;;;;;14.77;13.32;;;14.00;54.90;;;;;;5048269;28;20535;-51
2022/04/23 02:16:06;;;;;;;17.02;13.30;;;14.00;54.90;;;;;;5035133;28;20056;-46
2022/04/23 02:18:39;;;;;;;16.20;13.45;;;14.00;55.10;;;;;;5033442;28;20067;-47
2022/04/23 02:21:06;;;;;;;16.53;14.30;;;14.00;55.20;;;;;;5041839;28;20107;-51
2022/04/23 02:23:35;;;;;;;14.27;12.77;;;14.00;55.10;;;;;;5049263;28;20064;-48
2022/04/23 02:26:05;;;;;;;17.00;14.63;;;14.00;55.10;;;;;;5043199;28;20043;-51
2022/04/23 02:28:35;;;;;;;16.00;14.25;;;13.90;55.10;;;;;;5052392;28;20045;-47
2022/04/23 02:31:04;;;;;;;15.90;13.77;;;13.90;55.20;;;;;;5046457;28;20064;-50
2022/04/23 02:33:33;;;;;;;15.85;13.98;;;13.90;55.50;;;;;;5047495;28;20053;-50
2022/04/23 02:36:15;;;;;;;16.80;13.63;;;13.90;55.40;;;;;;5048799;28;20662;-50
2022/04/23 02:38:42;;;;;;;16.67;13.43;;;13.80;55.40;;;;;;5044817;28;20045;-47
2022/04/23 02:41:13;;;;;;;15.75;12.73;;;13.80;55.50;;;;;;5052211;28;20087;-47
2022/04/23 02:43:45;;;;;;;15.90;13.93;;;13.80;55.80;;;;;;5049302;28;20041;-47
2022/04/23 02:46:15;;;;;;;14.23;12.07;;;13.80;55.60;;;;;;5043219;28;20080;-47
2022/04/23 02:48:45;;;;;;;14.27;12.88;;;13.80;55.60;;;;;;5050910;28;20056;-47
2022/04/23 02:51:16;;;;;;;14.15;12.23;;;13.80;55.70;;;;;;5051244;28;20033;-47
2022/04/23 02:53:50;;;;;;;13.70;12.25;;;13.80;55.90;;;;;;5044507;28;20052;-47
2022/04/23 02:56:26;;;;;;;13.88;12.40;;;13.70;55.70;;;;;;5050981;28;20094;-51
2022/04/23 02:58:55;;;;;;;16.17;13.23;;;13.70;55.80;;;;;;5074322;22;20088;-49
2022/04/23 03:01:23;;;;;;;13.73;12.02;;;13.70;55.90;;;;;;5051852;28;20041;-50
2022/04/23 03:03:56;;;;;;;15.25;12.88;;;13.70;56.00;;;;;;5053053;28;20036;-52
2022/04/23 03:06:28;;;;;;;14.45;12.95;;;13.60;56.00;;;;;;5051541;28;20033;-52
2022/04/23 03:09:04;;;;;;;15.68;13.57;;;13.60;56.70;;;;;;5024723;28;20096;-50
2022/04/23 03:11:41;;;;;;;14.38;12.80;;;13.60;56.40;;;;;;5029290;28;20095;-49
2022/04/23 03:14:07;;;;;;;16.20;13.20;;;13.60;56.40;;;;;;5035817;28;20099;-52
2022/04/23 03:16:36;;;;;;;15.27;12.68;;;13.60;56.30;;;;;;5021722;28;20072;-53
2022/04/23 03:19:03;;;;;;;14.80;13.18;;;13.50;56.30;;;;;;5039513;28;20508;-52
2022/04/23 03:21:31;;;;;;;15.70;12.18;;;13.60;56.40;;;;;;5049032;28;20041;-52
2022/04/23 03:23:59;;;;;;;15.77;13.70;;;13.50;56.50;;;;;;5052617;28;20048;-53
2022/04/23 03:26:26;;;;;;;14.70;12.65;;;13.50;56.60;;;;;;5037215;28;20576;-52
2022/04/23 03:28:53;;;;;;;15.45;12.52;;;13.50;56.60;;;;;;5041710;28;20037;-49
2022/04/23 03:31:20;;;;;;;15.30;13.70;;;13.40;57.20;;;;;;5043324;28;20045;-53
2022/04/23 03:33:49;;;;;;;15.07;12.88;;;13.40;56.70;;;;;;5028447;28;20131;-52
2022/04/23 03:36:17;;;;;;;14.90;12.57;;;13.40;56.80;;;;;;5040094;28;20044;-51
2022/04/23 03:38:44;;;;;;;15.07;13.48;;;13.40;56.90;;;;;;5043483;28;20041;-51
2022/04/23 03:41:17;;;;;;;14.40;12.90;;;13.40;57.10;;;;;;5051267;28;20041;-52
2022/04/23 03:43:46;;;;;;;15.35;13.70;;;13.40;57.40;;;;;;5038449;28;20098;-54
2022/04/23 03:46:13;;;;;;;16.55;13.45;;;13.30;57.50;;;;;;5025038;28;20502;-52
2022/04/23 03:48:43;;;;;;;18.30;13.68;;;13.30;57.40;;;;;;5040002;28;20061;-51
2022/04/23 03:51:12;;;;;;;16.00;13.40;;;13.30;57.50;;;;;;5031047;28;20050;-53
2022/04/23 03:53:39;;;;;;;15.10;13.18;;;13.30;57.70;;;;;;5029698;28;20386;-54
2022/04/23 03:56:08;;;;;;;17.88;13.73;;;13.30;57.80;;;;;;5030346;28;20453;-54
2022/04/23 03:58:38;;;;;;;16.73;14.00;;;13.20;57.90;;;;;;5042300;28;20094;-51
2022/04/23 04:01:08;;;;;;;15.73;13.80;;;13.20;58.00;;;;;;5050807;28;20098;-52
2022/04/23 04:03:38;;;;;;;19.98;15.18;;;13.20;58.30;;;;;;5030631;28;20029;-52
2022/04/23 04:06:05;;;;;;;16.83;14.43;;;13.20;58.40;;;;;;5016302;28;20042;-56
2022/04/23 04:08:39;;;;;;;17.38;15.45;;;13.20;59.10;;;;;;5031484;28;20044;-54
2022/04/23 04:11:06;;;;;;;17.73;14.55;;;13.20;58.70;;;;;;5028093;28;20065;-49
2022/04/23 04:13:35;;;;;;;17.95;15.57;;;13.20;58.60;;;;;;5024379;28;20091;-50
2022/04/23 04:16:02;;;;;;;18.83;14.60;;;13.10;58.70;;;;;;5023683;28;20034;-53
2022/04/23 04:18:30;;;;;;;18.38;14.70;;;13.10;58.80;;;;;;5023797;28;20037;-50
2022/04/23 04:20:59;;;;;;;18.45;15.23;;;13.10;58.90;;;;;;5021319;28;20502;-48
2022/04/23 04:23:26;;;;;;;19.98;15.95;;;13.20;59.20;;;;;;5023868;28;20033;-52
2022/04/23 04:25:55;;;;;;;20.25;16.13;;;13.10;59.00;;;;;;5022736;28;20038;-52
2022/04/23 04:28:24;;;;;;;18.25;15.40;;;13.10;59.10;;;;;;5024153;28;20511;-49
2022/04/23 04:33:40;;;;;;;18.30;15.07;;;13.10;59.20;;;;;;5029689;28;20401;-55
2022/04/23 04:36:11;;;;;;;18.80;15.73;;;13.10;59.50;;;;;;5035390;28;20045;-49
2022/04/23 04:38:38;;;;;;;19.50;15.63;;;13.10;59.60;;;;;;5031588;28;20036;-49
2022/04/23 04:41:06;;;;;;;16.98;15.10;;;13.00;59.20;;;;;;5048603;28;20041;-49
2022/04/23 04:43:41;;;;;;;19.27;16.65;;;12.80;59.10;;;;;;5034928;28;20137;-49
2022/04/23 04:46:15;;;;;;;19.88;16.23;;;13.00;59.20;;;;;;5037359;28;20037;-52
2022/04/23 04:48:46;;;;;;;20.55;17.10;;;13.00;59.50;;;;;;5031424;28;20468;-52
2022/04/23 04:51:12;;;;;;;19.02;15.98;;;13.00;59.30;;;;;;5028599;28;20048;-50
2022/04/23 04:53:41;;;;;;;19.42;15.90;;;13.00;59.40;;;;;;5027786;28;20038;-53
2022/04/23 04:56:10;;;;;;;20.10;16.20;;;13.00;59.40;;;;;;5025244;28;20494;-51
2022/04/23 04:58:37;;;;;;;20.65;16.65;;;13.00;59.70;;;;;;5019504;28;20436;-50
2022/04/23 05:01:04;;;;;;;20.35;16.80;;;13.00;59.60;;;;;;5026650;28;20661;-50
2022/04/23 05:03:31;;;;;;;21.70;17.48;;;13.00;59.70;;;;;;5031650;28;20086;-50
2022/04/23 05:05:57;;;;;;;21.52;18.02;;;13.00;59.80;;;;;;5022026;28;20046;-49
2022/04/23 05:08:28;;;;;;;20.80;17.50;;;13.00;59.80;;;;;;5019799;28;20390;-50
2022/04/23 05:10:55;;;;;;;21.30;17.15;;;13.00;59.80;;;;;;5023122;28;20041;-51
2022/04/23 05:13:24;;;;;;;21.60;17.90;;;13.10;60.00;;;;;;5029076;28;20052;-51
2022/04/23 05:15:54;;;;;;;20.25;17.00;;;13.00;60.00;;;;;;5019525;28;20046;-52
2022/04/23 05:18:20;;;;;;;20.83;17.85;;;13.10;60.70;;;;;;5020024;28;20057;-50
2022/04/23 05:20:47;;;;;;;22.15;18.13;;;13.10;60.20;;;;;;5009638;28;20033;-51
2022/04/23 05:23:17;;;;;;;22.30;17.63;;;13.10;60.30;;;;;;5026752;28;20390;-52
2022/04/23 05:25:43;;;;;;;24.00;18.95;;;13.10;60.20;;;;;;5017809;28;20120;-51
2022/04/23 05:28:12;;;;;;;22.40;19.17;;;13.10;60.20;;;;;;5020406;28;20038;-52
2022/04/23 05:30:44;;;;;;;22.50;18.88;;;13.10;60.60;;;;;;5027983;28;20095;-50
2022/04/23 05:33:11;;;;;;;24.17;19.80;;;13.10;60.30;;;;;;5016710;28;20466;-50
2022/04/23 05:35:40;;;;;;;24.58;19.92;;;13.20;60.50;;;;;;5034163;28;20098;-53
2022/04/23 05:38:10;;;;;;;21.80;17.90;;;13.20;60.70;;;;;;5036401;28;20685;-51
2022/04/23 05:40:41;;;;;;;23.15;19.83;;;13.20;61.20;;;;;;5037549;28;20040;-51
2022/04/23 05:43:11;;;;;;;25.77;20.20;;;13.20;60.70;;;;;;5040599;28;20044;-50
2022/04/23 05:45:43;;;;;;;25.08;19.20;;;13.20;60.70;;;;;;5048424;28;20041;-54
2022/04/23 05:48:19;;;;;;;25.13;20.15;;;13.30;61.10;;;;;;5035419;28;20456;-55
2022/04/23 05:50:48;;;;;;;26.70;21.58;;;13.30;61.00;;;;;;5032213;28;20463;-52
2022/04/23 05:53:15;;;;;;;24.42;20.55;;;13.30;61.20;;;;;;5020759;28;20045;-51
2022/04/23 05:55:45;;;;;;;23.27;19.45;;;13.30;61.00;;;;;;5027510;28;20501;-53
2022/04/23 05:58:14;;;;;;;24.88;20.63;;;13.30;61.00;;;;;;5032259;28;20048;-55
2022/04/23 06:00:44;;;;;;;22.40;19.87;;;13.40;61.10;;;;;;5036097;28;20049;-51
2022/04/23 06:03:11;;;;;;;23.02;19.63;;;13.40;61.00;;;;;;5044976;28;20357;-51
2022/04/23 06:05:39;;;;;;;24.25;18.77;;;13.40;61.00;;;;;;5043321;28;20072;-52
2022/04/23 06:08:07;;;;;;;23.05;20.58;;;13.50;61.10;;;;;;5030712;28;20542;-53
2022/04/23 06:10:37;;;;;;;22.67;19.48;;;13.50;61.00;;;;;;5020165;28;20048;-50
2022/04/23 06:13:06;;;;;;;23.30;19.42;;;13.60;61.00;;;;;;5028049;28;20525;-53
2022/04/23 06:15:35;;;;;;;24.40;19.90;;;13.60;60.90;;;;;;5023930;28;20057;-50
2022/04/23 06:18:04;;;;;;;25.50;20.17;;;13.70;60.90;;;;;;5038612;28;20458;-51
2022/04/23 06:20:32;;;;;;;24.30;19.38;;;13.70;60.90;;;;;;5034887;28;20447;-53
2022/04/23 06:22:59;;;;;;;26.35;21.35;;;13.80;61.00;;;;;;5032010;28;20076;-51
2022/04/23 06:25:26;;;;;;;23.05;18.83;;;13.80;61.10;;;;;;5032466;28;20071;-49
2022/04/23 06:27:58;;;;;;;24.63;19.60;;;13.80;60.90;;;;;;5035213;28;20041;-51
2022/04/23 06:30:26;;;;;;;21.90;18.17;;;13.90;60.80;;;;;;5041536;28;20053;-49
2022/04/23 06:32:54;;;;;;;22.05;18.95;;;13.90;60.80;;;;;;4993279;28;20077;-53
2022/04/23 06:35:20;;;;;;;23.15;18.80;;;14.00;60.90;;;;;;5013618;28;20092;-54
2022/04/23 06:37:47;;;;;;;23.67;19.67;;;14.00;60.70;;;;;;5006266;28;20549;-51
2022/04/23 06:40:14;;;;;;;21.48;19.02;;;14.10;60.70;;;;;;5013416;28;20464;-54
2022/04/23 06:42:41;;;;;;;22.90;19.20;;;14.10;60.60;;;;;;5007398;28;20040;-50
2022/04/23 06:45:11;;;;;;;23.48;19.52;;;14.10;60.60;;;;;;5004486;28;20088;-52
2022/04/23 06:47:38;;;;;;;22.52;19.15;;;14.20;60.50;;;;;;5011963;28;20047;-55
2022/04/23 06:50:08;;;;;;;21.00;18.42;;;14.20;60.40;;;;;;5023021;28;20178;-51
2022/04/23 06:52:35;;;;;;;20.83;18.48;;;14.30;60.40;;;;;;5011959;28;20046;-55
2022/04/23 06:55:04;;;;;;;21.42;18.27;;;14.30;60.30;;;;;;5027681;28;20046;-54
2022/04/23 06:57:31;;;;;;;21.92;17.92;;;14.40;60.20;;;;;;5013448;28;20158;-54
2022/04/23 07:00:00;;;;;;;21.10;18.73;;;14.40;60.00;;;;;;5021416;28;20037;-53
2022/04/23 07:02:28;;;;;;;22.33;18.65;;;14.50;60.10;;;;;;4993097;28;20049;-55
2022/04/23 07:04:55;;;;;;;24.33;19.05;;;14.50;59.80;;;;;;4994527;28;20493;-50
2022/04/23 07:07:21;;;;;;;18.73;16.73;;;14.60;59.80;;;;;;5037977;28;20072;-54
2022/04/23 07:09:48;;;;;;;21.55;18.67;;;14.60;59.80;;;;;;5019602;28;20034;-50
2022/04/23 07:12:15;;;;;;;23.00;18.73;;;14.70;59.60;;;;;;5026186;28;20459;-54
2022/04/23 07:14:42;;;;;;;20.30;17.92;;;14.70;59.50;;;;;;5015480;28;20527;-50
2022/04/23 07:17:10;;;;;;;23.67;18.35;;;14.80;59.40;;;;;;5037905;28;20107;-52
2022/04/23 07:19:40;;;;;;;20.10;17.17;;;14.80;59.40;;;;;;5023642;28;21006;-49
2022/04/23 07:22:08;;;;;;;21.13;18.52;;;14.90;59.50;;;;;;5030258;28;20033;-53
2022/04/23 07:24:35;;;;;;;21.05;17.70;;;14.90;59.10;;;;;;5015365;28;20037;-56
2022/04/23 07:27:03;;;;;;;19.33;17.10;;;15.00;58.90;;;;;;5025815;28;20122;-52
2022/04/23 07:29:30;;;;;;;22.02;17.80;;;15.00;58.90;;;;;;5012234;28;20488;-52
2022/04/23 07:31:57;;;;;;;21.13;15.68;;;15.00;58.70;;;;;;5022725;28;20038;-52
2022/04/23 07:37:32;;;;;;;19.70;16.27;;;15.10;58.70;;;;;;5021730;28;20429;-54
2022/04/23 07:40:10;;;;;;;18.27;15.63;;;15.20;58.40;;;;;;5022212;28;20057;-53
2022/04/23 07:42:37;;;;;;;19.63;16.38;;;15.30;59.10;;;;;;5013824;28;20463;-56
2022/04/23 07:45:05;;;;;;;20.38;16.63;;;15.20;58.00;;;;;;5021354;28;20092;-51
2022/04/23 07:47:32;;;;;;;19.98;16.20;;;15.30;58.10;;;;;;5019354;28;20041;-56
2022/04/23 07:50:01;;;;;;;17.77;15.88;;;15.40;58.00;;;;;;5015384;28;20069;-54
2022/04/23 07:52:28;;;;;;;17.70;15.05;;;15.50;57.70;;;;;;5023828;28;20041;-56
2022/04/23 07:54:55;;;;;;;17.52;14.73;;;15.50;57.40;;;;;;5011393;28;20046;-54
2022/04/23 07:57:23;;;;;;;21.45;15.25;;;15.50;57.30;;;;;;5017135;28;20053;-56
2022/04/23 07:59:50;;;;;;;17.98;15.07;;;15.60;57.50;;;;;;5009444;28;20054;-51
2022/04/23 08:02:17;;;;;;;15.85;14.18;;;15.70;57.20;;;;;;5025464;28;20812;-54
2022/04/23 08:04:45;;;;;;;17.05;14.95;;;15.70;57.10;;;;;;5012439;28;20064;-53
2022/04/23 08:07:12;;;;;;;18.35;14.65;;;15.80;57.00;;;;;;5017986;28;20493;-53
2022/04/23 08:09:39;;;;;;;17.35;14.40;;;15.80;56.70;;;;;;5008598;28;20113;-54
2022/04/23 08:12:08;;;;;;;16.17;14.48;;;15.90;56.40;;;;;;5019448;28;20045;-52
2022/04/23 08:14:35;;;;;;;17.98;14.60;;;15.90;56.20;;;;;;5015219;28;20045;-54
2022/04/23 08:17:02;;;;;;;16.02;13.98;;;16.00;56.30;;;;;;5018609;28;20073;-52
2022/04/23 08:19:29;;;;;;;15.93;13.52;;;16.10;56.10;;;;;;5017743;28;20041;-52
2022/04/23 08:21:56;;;;;;;14.00;12.55;;;16.10;55.90;;;;;;5042609;28;20788;-54
2022/04/23 08:24:24;;;;;;;16.23;12.82;;;16.20;55.80;;;;;;5014343;28;20452;-55
2022/04/23 08:26:50;;;;;;;14.18;12.35;;;16.20;55.60;;;;;;5016184;28;20037;-53
2022/04/23 08:32:03;;;;;;;14.85;12.27;;;16.30;55.60;;;;;;5029014;28;20052;-53
2022/04/23 08:34:30;;;;;;;13.57;11.57;;;16.40;55.30;;;;;;5006195;28;20050;-54
2022/04/23 08:36:57;;;;;;;14.52;12.93;;;16.50;55.40;;;;;;5024099;28;20782;-54
2022/04/23 08:39:24;;;;;;;15.40;12.60;;;16.50;55.50;;;;;;5013116;28;20045;-50
2022/04/23 08:41:51;;;;;;;13.20;11.80;;;16.60;55.10;;;;;;5030697;28;20037;-50
2022/04/23 08:44:19;;;;;;;13.73;12.00;;;16.60;55.20;;;;;;5007525;28;20042;-54
2022/04/23 08:46:47;;;;;;;16.65;12.85;;;16.70;54.90;;;;;;5027162;28;20061;-52
2022/04/23 08:49:16;;;;;;;13.32;11.93;;;16.80;55.00;;;;;;5009067;28;20384;-54
2022/04/23 08:51:54;;;;;;;13.05;11.65;;;16.90;55.20;;;;;;5031171;28;20049;-51
2022/04/23 08:54:23;;;;;;;15.68;13.02;;;16.90;54.80;;;;;;5008313;28;20049;-55
2022/04/23 08:56:50;;;;;;;14.07;11.95;;;17.00;54.50;;;;;;5033472;28;20100;-55
2022/04/23 08:59:20;;;;;;;14.30;12.13;;;17.10;54.40;;;;;;5012068;28;20548;-52
2022/04/23 09:01:54;;;;;;;13.40;11.85;;;17.10;54.40;;;;;;5027087;28;20061;-50
2022/04/23 09:04:21;;;;;;;13.20;11.07;;;17.30;54.30;;;;;;5012244;28;20049;-54
2022/04/23 09:06:48;;;;;;;13.57;11.77;;;17.30;53.90;;;;;;5014604;28;20044;-51
2022/04/23 09:09:23;;;;;;;12.80;10.85;;;17.40;53.90;;;;;;5005207;28;20089;-53
2022/04/23 09:11:56;;;;;;;12.15;10.88;;;17.50;53.70;;;;;;5027783;28;20053;-50
2022/04/23 09:14:31;;;;;;;14.15;11.30;;;17.60;53.40;;;;;;5059630;22;20084;-47
2022/04/23 09:25:30;;;;;;;13.13;10.70;;;17.90;52.80;;;;;;5048118;28;20558;-47
2022/04/23 09:28:12;;;;;;;12.98;11.57;;;18.00;52.50;;;;;;5048932;28;20045;-47
2022/04/23 09:30:41;;;;;;;11.98;10.23;;;18.10;52.20;;;;;;5049973;28;20049;-47
2022/04/23 09:33:12;;;;;;;11.73;10.55;;;18.00;51.90;;;;;;5045518;28;20053;-48
2022/04/23 09:36:14;;;;;;;12.85;11.27;;;18.10;51.90;;;;;;5049509;28;20443;-47
2022/04/23 09:38:41;;;;;;;12.88;10.95;;;18.20;51.60;;;;;;4968778;28;20059;-47
2022/04/23 09:41:20;;;;;;;12.07;10.90;;;18.20;51.60;;;;;;5027760;28;20057;-47
2022/04/23 09:44:04;;;;;;;12.52;11.20;;;18.30;51.40;;;;;;5047949;28;20614;-47
2022/04/23 09:46:46;;;;;;;12.48;10.40;;;18.30;51.90;;;;;;5049466;28;20040;-48
2022/04/23 09:49:30;;;;;;;11.52;10.07;;;18.40;51.90;;;;;;5048076;28;20465;-47
2022/04/23 09:52:03;;;;;;;11.23;10.02;;;18.40;51.60;;;;;;5046831;28;20071;-49
2022/04/23 09:54:33;;;;;;;12.93;10.40;;;18.50;51.40;;;;;;5049502;28;20513;-47
2022/04/23 09:57:00;;;;;;;10.75;9.65;;;18.50;51.60;;;;;;5050559;28;20041;-48
2022/04/23 09:59:28;;;;;;;10.95;9.80;;;18.60;51.40;;;;;;5041288;28;20053;-48
2022/04/23 10:01:55;;;;;;;10.70;9.70;;;18.70;51.40;;;;;;5043085;28;20065;-47
2022/04/23 10:04:31;;;;;;;14.05;11.07;;;18.80;51.30;;;;;;5049545;28;20136;-49
2022/04/23 10:07:06;;;;;;;11.07;9.88;;;18.80;51.20;;;;;;5050908;28;20060;-46
2022/04/23 10:09:37;;;;;;;;;;;18.90;51.60;;;;;;5047297;28;20065;-49
2022/04/23 10:12:15;;;;;;;10.70;9.60;;;19.10;51.20;;;;;;5051188;28;20551;-52
2022/04/23 10:14:50;;;;;;;12.18;9.23;;;19.20;50.40;;;;;;5041661;28;20102;-47
2022/04/23 10:17:20;;;;;;;10.65;9.55;;;19.30;49.80;;;;;;5067877;28;20091;-48
2022/04/23 10:19:48;;;;;;;11.65;9.57;;;19.40;50.00;;;;;;5055212;28;20033;-47
2022/04/23 10:22:25;;;;;;;11.90;9.15;;;19.50;50.00;;;;;;5051928;28;20044;-48
2022/04/23 10:25:12;;;;;;;9.48;8.55;;;19.60;49.10;;;;;;5045949;28;20040;-50
2022/04/23 10:27:42;;;;;;;11.10;8.63;;;19.70;48.80;;;;;;5050040;28;20044;-47
2022/04/23 10:30:10;;;;;;;8.75;7.85;;;19.80;48.90;;;;;;5050711;28;20120;-47
2022/04/23 10:32:41;;;;;;;9.13;8.32;;;19.90;48.60;;;;;;5053879;28;20099;-47
2022/04/23 10:35:33;;;;;;;10.10;9.20;;;20.00;47.90;;;;;;5051599;28;20073;-47
2022/04/23 10:38:16;;;;;;;10.70;7.75;;;20.10;47.40;;;;;;5032237;28;20072;-50
2022/04/23 10:40:47;;;;;;;11.85;9.25;;;20.10;47.60;;;;;;5046062;28;20041;-47
2022/04/23 10:43:16;;;;;;;8.60;7.70;;;20.20;47.60;;;;;;5052942;28;20493;-51
2022/04/23 10:45:43;;;;;;;26.90;10.32;;;20.20;47.50;;;;;;5052837;28;20115;-47
2022/04/23 10:48:22;;;;;;;11.60;8.43;;;20.20;47.20;;;;;;5050018;28;20037;-48
2022/04/23 10:51:23;;;;;;;8.70;7.90;;;20.30;46.60;;;;;;5052854;28;20048;-48
2022/04/23 10:53:55;;;;;;;8.52;7.63;;;20.30;46.40;;;;;;5045882;28;20087;-47
2022/04/23 10:56:26;;;;;;;9.82;8.25;;;20.40;47.50;;;;;;5048039;28;20044;-47
2022/04/23 10:58:56;;;;;;;7.78;7.07;;;20.40;47.70;;;;;;5050948;28;20526;-47
2022/04/23 11:01:31;;;;;;;8.38;7.57;;;20.50;47.80;;;;;;5033447;28;20091;-53
2022/04/23 11:04:05;;;;;;;8.20;7.40;;;20.60;47.30;;;;;;5048235;28;20036;-46
2022/04/23 11:12:37;;;;;;;8.63;7.63;;;20.80;47.60;;;;;;5045699;28;20049;-50
2022/04/23 11:15:18;;;;;;;8.30;7.50;;;20.90;47.00;;;;;;5030216;28;20136;-51
2022/04/23 11:17:46;;;;;;;10.70;7.63;;;21.00;46.90;;;;;;5043464;28;20286;-54
2022/04/23 11:20:14;;;;;;;7.90;7.18;;;21.10;46.80;;;;;;5038289;28;20056;-47
2022/04/23 11:22:41;;;;;;;8.63;7.80;;;21.20;47.20;;;;;;5044745;28;20152;-52
2022/04/23 11:25:08;;;;;;;7.53;6.82;;;21.30;46.20;;;;;;5032980;28;20048;-49
2022/04/23 11:27:36;;;;;;;8.50;7.70;;;21.40;46.30;;;;;;5046066;28;20435;-48
2022/04/23 11:30:07;;;;;;;8.45;7.65;;;21.40;45.10;;;;;;5033055;28;20037;-48
2022/04/23 11:32:36;;;;;;;7.88;7.18;;;21.50;44.60;;;;;;5048523;28;20072;-49
2022/04/23 11:35:07;;;;;;;8.27;7.55;;;21.60;44.80;;;;;;5030136;28;20037;-50
2022/04/23 11:37:38;;;;;;;8.60;7.68;;;21.70;44.40;;;;;;5042605;28;20052;-49
2022/04/23 11:40:17;;;;;;;8.57;7.65;;;21.80;44.90;;;;;;5035043;28;20123;-48
2022/04/23 11:42:46;;;;;;;9.02;7.60;;;21.80;44.60;;;;;;5042752;28;20068;-54
2022/04/23 11:45:15;;;;;;;8.88;7.43;;;21.90;44.00;;;;;;5015542;28;20278;-53
2022/04/23 11:47:42;;;;;;;8.55;6.57;;;21.90;44.00;;;;;;5027604;28;20045;-52
2022/04/23 11:50:22;;;;;;;8.63;7.80;;;21.90;44.10;;;;;;5032613;28;20048;-50
2022/04/23 11:53:00;;;;;;;8.65;7.20;;;21.90;42.90;;;;;;5038233;28;20045;-55
2022/04/23 11:55:28;;;;;;;8.30;6.75;;;22.00;43.30;;;;;;5037256;28;20098;-51
2022/04/23 11:58:06;;;;;;;7.20;6.60;;;22.00;43.70;;;;;;5036920;28;20041;-53
2022/04/23 12:00:33;;;;;;;9.30;7.35;;;22.10;42.90;;;;;;5039331;28;20087;-49
2022/04/23 12:03:01;;;;;;;10.00;7.00;;;22.10;43.70;;;;;;5031788;28;20098;-55
2022/04/23 12:05:34;;;;;;;9.57;6.95;;;22.10;42.70;;;;;;5040025;28;20048;-48
2022/04/23 12:08:01;;;;;;;7.35;6.68;;;22.10;42.40;;;;;;5036841;28;20402;-51
2022/04/23 12:10:29;;;;;;;10.10;6.93;;;22.20;43.00;;;;;;5043757;28;20045;-48
2022/04/23 12:13:08;;;;;;;7.57;6.00;;;22.20;42.20;;;;;;5036449;28;20645;-53
2022/04/23 12:15:43;;;;;;;7.05;6.40;;;22.30;42.60;;;;;;5039269;28;20658;-47
2022/04/23 12:18:19;;;;;;;8.20;7.40;;;22.30;42.40;;;;;;5034429;28;20620;-49
2022/04/23 12:20:46;;;;;;;7.75;6.80;;;22.40;41.90;;;;;;5044650;28;20050;-49
2022/04/23 12:23:12;;;;;;;8.52;7.63;;;22.50;41.80;;;;;;5034207;28;20068;-48
2022/04/23 12:25:39;;;;;;;8.32;7.15;;;22.50;41.90;;;;;;5039906;28;20052;-51
2022/04/23 12:42:30;;;;;;;7.57;6.78;;;23.10;41.30;;;;;;5048163;28;20382;-48
2022/04/23 12:44:57;;;;;;;8.57;6.95;;;23.20;41.40;;;;;;5025681;28;20041;-50
2022/04/23 12:47:27;;;;;;;7.70;7.00;;;23.40;40.70;;;;;;5029134;28;20049;-48
2022/04/23 12:49:56;;;;;;;7.65;6.85;;;23.60;40.50;;;;;;5030046;28;20116;-50
2022/04/23 12:52:25;;;;;;;7.63;6.68;;;23.80;40.00;;;;;;5047478;28;20059;-48
2022/04/23 12:55:12;;;;;;;8.45;6.65;;;23.90;39.30;;;;;;5027786;28;20127;-48
2022/04/23 12:57:45;;;;;;;7.05;6.25;;;24.00;38.30;;;;;;5041748;28;20041;-56
2022/04/23 13:00:16;;;;;;;8.88;8.07;;;24.10;38.30;;;;;;5033673;28;20052;-51
2022/04/23 13:02:46;;;;;;;7.28;6.50;;;24.10;38.30;;;;;;5047624;28;20435;-56
2022/04/23 13:05:15;;;;;;;9.13;7.22;;;24.10;38.40;;;;;;5031831;28;20071;-47
2022/04/23 13:10:28;;;;;;;8.82;7.15;;;24.30;38.30;;;;;;5040947;28;20049;-48
2022/04/23 13:12:54;;;;;;;8.32;7.15;;;24.40;38.90;;;;;;5037652;28;20651;-54
2022/04/23 13:15:22;;;;;;;14.77;8.18;;;24.50;39.00;;;;;;5042445;28;20521;-49
2022/04/23 13:17:50;;;;;;;7.85;7.15;;;24.70;38.00;;;;;;5037879;28;20711;-54
2022/04/23 13:20:18;;;;;;;8.23;7.43;;;24.90;38.00;;;;;;5037280;28;20643;-48
2022/04/23 13:22:46;;;;;;;7.75;7.00;;;25.00;37.70;;;;;;5037417;28;20099;-51
2022/04/23 13:25:18;;;;;;;8.02;7.22;;;25.20;37.50;;;;;;5037896;28;20047;-47